KCRS

C David Campbell Field-Corsicana Municipal Airport

Corsicana, Texas, USA
METAR KCRS 180817Z AUTO 00000KT 1/2SM FG OVC002 09/09 A3016 RMK AO2 T00890089
Observed Flight Rules
Dec-18 @ 08:17 UTC (38 minutes ago) Instrument Flight Rules
Wind Visibility Clouds Conditions
Calm 1/2 miles
  • Overcast at 200' AGL
  • Fog
Temperatures Readings
Current 9°C / 48°F
Dewpoint 9°C / 48°F
Humidity 100%
Altimeter 30.16" Hg
Pressure 1021 hPa
Elevation 133
METAR KCRS 180817Z AUTO 00000KT 1/2SM FG OVC002 09/09 A3016 RMK AO2 T00890089
Observed Flight Rules
Dec-18 @ 08:17 UTC
(38 minutes ago)
LIFR
Wind Visibility
Calm 1/2 miles
Clouds
  • Overcast at 200' AGL
Conditions
  • Fog
Temperature Dewpoint
9°C / 48°F 9°C / 48°F
Humidity Altimeter Pressure
100% 30.16" Hg 1021 hPa